createdAt,value
2022-10-08T00:01:10.414Z,99511.44
2022-10-08T00:02:13.453Z,99506.03
2022-10-08T00:03:19.054Z,99502.19
2022-10-08T00:04:22.048Z,99511.03
2022-10-08T00:05:24.297Z,99511.19
2022-10-08T00:06:29.975Z,99518.16
2022-10-08T00:07:32.209Z,99508.78
2022-10-08T00:08:37.102Z,99507.38
2022-10-08T00:09:39.289Z,99503.06
2022-10-08T00:10:41.450Z,99506.84
2022-10-08T00:11:43.769Z,99502.38
2022-10-08T00:12:46.263Z,99507.31
2022-10-08T00:13:50.323Z,99505.22
2022-10-08T00:14:52.622Z,99505.91
2022-10-08T00:15:55.078Z,99501.97
2022-10-08T00:16:57.366Z,99503.34
2022-10-08T00:17:59.514Z,99501.28
2022-10-08T00:19:06.073Z,99501.03
2022-10-08T00:20:09.666Z,99495.44
2022-10-08T00:21:18.705Z,99496.84
2022-10-08T00:22:21.059Z,99495.69
2022-10-08T00:23:24.161Z,99497.16
2022-10-08T00:24:27.537Z,99496.94
2022-10-08T00:25:29.662Z,99492.50
2022-10-08T00:26:37.478Z,99496.00
2022-10-08T00:27:42.317Z,99496.69
2022-10-08T00:28:46.312Z,99495.75
2022-10-08T00:29:48.481Z,99493.81
2022-10-08T00:30:50.638Z,99493.56
2022-10-08T00:31:52.840Z,99488.16
2022-10-08T00:32:59.760Z,99496.31
2022-10-08T00:34:07.177Z,99499.72
2022-10-08T00:35:09.340Z,99501.59
2022-10-08T00:36:12.956Z,99503.03
2022-10-08T00:37:15.366Z,99502.34
2022-10-08T00:38:17.522Z,99502.28
2022-10-08T00:39:21.805Z,99503.28
2022-10-08T00:40:25.067Z,99503.75
2022-10-08T00:41:29.948Z,99498.41
2022-10-08T00:42:32.136Z,99500.50
2022-10-08T00:43:44.896Z,99502.28
2022-10-08T00:44:47.054Z,99505.59
2022-10-08T00:45:49.724Z,99499.72
2022-10-08T00:46:52.036Z,99499.78
2022-10-08T00:47:56.160Z,99501.66
2022-10-08T00:49:03.170Z,99498.38
2022-10-08T00:50:08.953Z,99506.16
2022-10-08T00:51:11.604Z,99502.31
2022-10-08T00:52:13.966Z,99501.84
2022-10-08T00:53:16.233Z,99495.75
2022-10-08T00:54:20.701Z,99494.41
2022-10-08T00:55:27.053Z,99486.44
2022-10-08T00:56:34.304Z,99486.97
2022-10-08T00:57:38.715Z,99490.16
2022-10-08T00:58:41.765Z,99487.59
2022-10-08T00:59:44.110Z,99486.44
2022-10-08T01:00:47.739Z,99489.63
2022-10-08T01:01:50.130Z,99479.16
2022-10-08T01:02:53.827Z,99486.69
2022-10-08T01:03:57.698Z,99486.13
2022-10-08T01:05:00.671Z,99475.16
2022-10-08T01:06:15.864Z,99480.00
2022-10-08T01:07:26.122Z,99481.13
2022-10-08T01:08:57.491Z,99475.59
2022-10-08T01:10:10.673Z,99481.09
2022-10-08T01:11:31.250Z,99481.66
2022-10-08T01:13:01.701Z,99476.22
2022-10-08T01:14:25.131Z,99487.06
2022-10-08T01:15:44.629Z,99485.72
2022-10-08T01:16:55.861Z,99481.03
2022-10-08T01:18:19.133Z,99482.69
2022-10-08T01:19:42.530Z,99482.84
2022-10-08T01:20:57.550Z,99480.97
2022-10-08T01:22:20.365Z,99474.78
2022-10-08T01:23:41.786Z,99476.69
2022-10-08T01:25:09.464Z,99476.00
2022-10-08T01:26:31.969Z,99478.34
2022-10-08T01:27:43.183Z,99472.31
2022-10-08T01:29:05.162Z,99472.78
2022-10-08T01:30:12.579Z,99476.59
2022-10-08T01:31:20.783Z,99463.97
2022-10-08T01:32:29.011Z,99470.88
2022-10-08T01:33:39.113Z,99460.25
2022-10-08T01:34:45.703Z,99465.94
2022-10-08T01:35:54.140Z,99466.03
2022-10-08T01:36:59.230Z,99462.47
2022-10-08T01:38:07.001Z,99470.97
2022-10-08T01:39:14.037Z,99463.47
2022-10-08T01:40:22.401Z,99454.69
2022-10-08T01:41:26.760Z,99475.00
2022-10-08T01:42:29.079Z,99463.59
2022-10-08T01:43:35.402Z,99471.22
2022-10-08T01:44:46.333Z,99465.94
2022-10-08T01:45:56.982Z,99467.44
2022-10-08T01:47:03.781Z,99467.19
2022-10-08T01:48:12.300Z,99450.47
2022-10-08T01:49:22.636Z,99463.13
2022-10-08T01:50:32.898Z,99467.53
2022-10-08T01:51:40.949Z,99460.56
2022-10-08T01:52:48.772Z,99462.25
2022-10-08T01:53:52.453Z,99460.50
2022-10-08T01:55:00.208Z,99462.34
2022-10-08T01:56:05.866Z,99464.91
2022-10-08T01:57:10.837Z,99463.88
2022-10-08T01:58:19.028Z,99461.97
2022-10-08T01:59:27.608Z,99452.44
2022-10-08T02:00:32.146Z,99452.13
2022-10-08T02:01:37.071Z,99461.53
2022-10-08T02:02:40.121Z,99459.78
2022-10-08T02:04:02.462Z,99457.69
2022-10-08T02:05:06.124Z,99453.09
2022-10-08T02:06:08.578Z,99458.16
2022-10-08T02:07:20.143Z,99460.59
2022-10-08T02:08:22.940Z,99462.19
2022-10-08T02:09:27.167Z,99456.91
2022-10-08T02:10:29.357Z,99457.69
2022-10-08T02:11:31.647Z,99463.31
2022-10-08T02:12:35.091Z,99464.69
2022-10-08T02:13:37.256Z,99468.25
2022-10-08T02:14:43.486Z,99467.47
2022-10-08T02:15:59.499Z,99469.75
2022-10-08T02:17:10.887Z,99467.50
2022-10-08T02:18:20.464Z,99471.09
2022-10-08T02:19:32.725Z,99463.66
2022-10-08T02:20:43.820Z,99465.22
2022-10-08T02:21:59.744Z,99462.19
2022-10-08T02:23:23.457Z,99469.09
2022-10-08T02:24:38.144Z,99468.88
2022-10-08T02:25:53.273Z,99464.88
2022-10-08T02:26:58.867Z,99455.56
2022-10-08T02:28:43.309Z,99464.13
2022-10-08T02:29:58.136Z,99457.72
2022-10-08T02:31:08.251Z,99456.63
2022-10-08T02:32:23.574Z,99449.03
2022-10-08T02:33:32.878Z,99443.47
2022-10-08T02:34:47.289Z,99442.31
2022-10-08T02:35:56.512Z,99441.84
2022-10-08T02:37:15.231Z,99437.19
2022-10-08T02:38:23.560Z,99442.91
2022-10-08T02:39:30.726Z,99442.00
2022-10-08T02:40:37.281Z,99430.59
2022-10-08T02:41:45.585Z,99429.66
2022-10-08T02:42:53.115Z,99426.06
2022-10-08T02:43:59.539Z,99427.31
2022-10-08T02:45:29.931Z,99425.19
2022-10-08T02:46:37.747Z,99430.75
2022-10-08T02:47:42.441Z,99430.97
2022-10-08T02:49:07.635Z,99436.00
2022-10-08T02:50:18.287Z,99446.59
2022-10-08T02:51:21.100Z,99439.34
2022-10-08T02:52:27.213Z,99449.31
2022-10-08T02:53:30.107Z,99437.53
2022-10-08T02:54:36.283Z,99444.13
2022-10-08T02:55:47.410Z,99438.31
2022-10-08T02:57:09.410Z,99444.19
2022-10-08T02:58:13.375Z,99446.91
2022-10-08T02:59:17.910Z,99442.06
2022-10-08T03:00:20.324Z,99455.19
2022-10-08T03:01:28.651Z,99448.34
2022-10-08T03:02:46.191Z,99451.91
2022-10-08T03:03:55.081Z,99447.50
2022-10-08T03:05:02.571Z,99450.72
2022-10-08T03:06:08.512Z,99455.56
2022-10-08T03:07:12.389Z,99455.94
2022-10-08T03:08:16.110Z,99462.38
2022-10-08T03:09:21.270Z,99464.75
2022-10-08T03:10:25.939Z,99449.72
2022-10-08T03:11:30.639Z,99452.84
2022-10-08T03:12:33.953Z,99460.38
2022-10-08T03:13:40.436Z,99462.75
2022-10-08T03:14:47.770Z,99460.47
2022-10-08T03:15:53.675Z,99462.69
2022-10-08T03:16:56.095Z,99460.63
2022-10-08T03:17:59.141Z,99451.25
2022-10-08T03:19:04.164Z,99463.34
2022-10-08T03:20:08.996Z,99463.28
2022-10-08T03:21:14.889Z,99460.44
2022-10-08T03:22:17.585Z,99459.84
2022-10-08T03:23:19.802Z,99461.97
2022-10-08T03:24:22.375Z,99459.09
2022-10-08T03:25:24.557Z,99457.03
2022-10-08T03:26:26.724Z,99464.88
2022-10-08T03:27:28.963Z,99469.34
2022-10-08T03:28:31.252Z,99466.50
2022-10-08T03:29:33.468Z,99470.00
2022-10-08T03:30:35.696Z,99475.13
2022-10-08T03:31:38.424Z,99481.25
2022-10-08T03:32:40.603Z,99477.59
2022-10-08T03:33:42.766Z,99485.28
2022-10-08T03:34:45.085Z,99475.88
2022-10-08T03:35:47.689Z,99483.41
2022-10-08T03:36:49.846Z,99487.41
2022-10-08T03:37:53.670Z,99487.84
2022-10-08T03:38:55.890Z,99487.66
2022-10-08T03:39:58.072Z,99483.16
2022-10-08T03:41:00.425Z,99482.34
2022-10-08T03:42:02.663Z,99494.47
2022-10-08T03:43:04.929Z,99490.13
2022-10-08T03:44:09.103Z,99496.75
2022-10-08T03:45:11.259Z,99497.84
2022-10-08T03:46:14.594Z,99502.53
2022-10-08T03:47:16.825Z,99501.44
2022-10-08T03:48:20.247Z,99496.50
2022-10-08T03:49:22.417Z,99500.69
2022-10-08T03:50:24.757Z,99507.16
2022-10-08T03:51:26.920Z,99495.41
2022-10-08T03:52:30.684Z,99497.22
2022-10-08T03:53:34.925Z,99497.97
2022-10-08T03:54:37.771Z,99511.34
2022-10-08T03:55:39.920Z,99510.50
2022-10-08T03:56:42.067Z,99513.97
2022-10-08T03:57:44.367Z,99513.75
2022-10-08T03:58:47.725Z,99507.59
2022-10-08T03:59:49.915Z,99511.19
2022-10-08T04:00:58.929Z,99514.47
2022-10-08T04:02:01.172Z,99512.03
2022-10-08T04:03:03.697Z,99507.31
2022-10-08T04:04:05.884Z,99511.41
2022-10-08T04:05:08.447Z,99511.19
2022-10-08T04:06:11.623Z,99518.66
2022-10-08T04:07:13.802Z,99508.53
2022-10-08T04:08:16.119Z,99520.53
2022-10-08T04:09:18.343Z,99518.84
2022-10-08T04:10:20.490Z,99522.06
2022-10-08T04:11:22.687Z,99525.31
2022-10-08T04:12:24.874Z,99524.09
2022-10-08T04:13:27.033Z,99525.13
2022-10-08T04:14:29.199Z,99532.56
2022-10-08T04:15:31.390Z,99534.84
2022-10-08T04:16:33.663Z,99534.59
2022-10-08T04:17:35.796Z,99534.41
2022-10-08T04:18:38.125Z,99526.81
2022-10-08T04:19:40.296Z,99522.41
2022-10-08T04:20:43.123Z,99526.91
2022-10-08T04:21:45.481Z,99532.38
2022-10-08T04:22:49.006Z,99534.34
2022-10-08T04:23:51.587Z,99525.56
2022-10-08T04:24:53.864Z,99524.50
2022-10-08T04:25:56.231Z,99522.75
2022-10-08T04:26:58.402Z,99521.63
2022-10-08T04:28:00.573Z,99523.41
2022-10-08T04:29:02.805Z,99529.22
2022-10-08T04:30:06.199Z,99528.19
2022-10-08T04:31:12.765Z,99519.38
2022-10-08T04:32:16.123Z,99519.38
2022-10-08T04:33:18.439Z,99521.22
2022-10-08T04:34:20.636Z,99519.69
2022-10-08T04:35:22.919Z,99515.34
2022-10-08T04:36:25.611Z,99523.50
2022-10-08T04:37:27.779Z,99519.31
2022-10-08T04:38:29.950Z,99519.31
2022-10-08T04:39:32.146Z,99513.72
2022-10-08T04:40:34.324Z,99510.81
2022-10-08T04:41:36.467Z,99516.34
2022-10-08T04:42:38.771Z,99522.16
2022-10-08T04:43:42.336Z,99524.88
2022-10-08T04:44:44.523Z,99521.81
2022-10-08T04:45:46.919Z,99518.97
2022-10-08T04:46:49.252Z,99519.50
2022-10-08T04:47:51.510Z,99531.38
2022-10-08T04:48:55.647Z,99523.44
2022-10-08T04:49:57.800Z,99530.50
2022-10-08T04:51:03.446Z,99534.25
2022-10-08T04:52:07.216Z,99528.88
2022-10-08T04:53:09.387Z,99528.56
2022-10-08T04:54:11.583Z,99528.69
2022-10-08T04:55:13.871Z,99533.19
2022-10-08T04:56:22.471Z,99526.09
2022-10-08T04:57:24.626Z,99529.75
2022-10-08T04:58:26.781Z,99531.34
2022-10-08T04:59:28.985Z,99533.97
2022-10-08T05:00:31.134Z,99534.50
2022-10-08T05:01:33.405Z,99533.47
2022-10-08T05:02:35.701Z,99542.50
2022-10-08T05:03:39.415Z,99536.31
2022-10-08T05:04:41.563Z,99536.31
2022-10-08T05:05:45.587Z,99531.78
2022-10-08T05:06:47.779Z,99537.22
2022-10-08T05:07:50.630Z,99531.03
2022-10-08T05:08:53.007Z,99538.72
2022-10-08T05:09:55.178Z,99534.63
2022-10-08T05:10:57.456Z,99526.78
2022-10-08T05:11:59.604Z,99529.41
2022-10-08T05:13:02.450Z,99537.47
2022-10-08T05:14:05.164Z,99538.75
2022-10-08T05:15:07.819Z,99537.97
2022-10-08T05:16:13.026Z,99540.69
2022-10-08T05:17:15.457Z,99531.53
2022-10-08T05:18:17.635Z,99539.44
2022-10-08T05:19:19.834Z,99542.38
2022-10-08T05:20:22.058Z,99527.34
2022-10-08T05:21:26.876Z,99528.66
2022-10-08T05:22:29.151Z,99534.22
2022-10-08T05:23:31.330Z,99529.63
2022-10-08T05:24:33.955Z,99514.19
2022-10-08T05:25:36.704Z,99537.09
2022-10-08T05:28:04.163Z,99542.09
2022-10-08T05:29:06.407Z,99538.13
2022-10-08T05:30:09.004Z,99536.13
2022-10-08T05:31:11.281Z,99530.91
2022-10-08T05:32:13.497Z,99543.31
2022-10-08T05:33:15.735Z,99543.41
2022-10-08T05:34:17.882Z,99539.06
2022-10-08T05:35:20.242Z,99545.56
2022-10-08T05:36:26.354Z,99541.47
2022-10-08T05:37:28.563Z,99540.44
2022-10-08T05:38:34.764Z,99543.09
2022-10-08T05:39:37.369Z,99542.34
2022-10-08T05:40:39.515Z,99548.16
2022-10-08T05:41:42.009Z,99546.91
2022-10-08T05:42:44.410Z,99534.88
2022-10-08T05:43:47.619Z,99536.19
2022-10-08T05:44:49.806Z,99534.97
2022-10-08T05:45:52.135Z,99541.53
2022-10-08T05:46:54.332Z,99540.22
2022-10-08T05:47:56.557Z,99533.47
2022-10-08T05:49:01.124Z,99534.63
2022-10-08T05:50:03.496Z,99543.63
2022-10-08T05:51:14.493Z,99544.72
2022-10-08T05:52:17.036Z,99550.78
2022-10-08T05:53:19.206Z,99547.22
2022-10-08T05:54:21.862Z,99551.94
2022-10-08T05:55:24.097Z,99554.25
2022-10-08T05:56:27.743Z,99545.97
2022-10-08T05:57:29.867Z,99556.13
2022-10-08T05:58:34.902Z,99556.69
2022-10-08T05:59:37.090Z,99553.25
2022-10-08T06:00:39.446Z,99562.25
2022-10-08T06:01:41.628Z,99560.59
2022-10-08T06:02:43.885Z,99562.25
2022-10-08T06:03:57.081Z,99568.25
2022-10-08T06:04:59.270Z,99572.66
2022-10-08T06:06:07.240Z,99563.38
2022-10-08T06:07:09.427Z,99567.31
2022-10-08T06:08:12.428Z,99566.16
2022-10-08T06:09:18.247Z,99568.72
2022-10-08T06:10:20.501Z,99573.59
2022-10-08T06:11:22.656Z,99571.81
2022-10-08T06:12:24.978Z,99583.38
2022-10-08T06:13:27.391Z,99592.47
2022-10-08T06:14:29.599Z,99594.00
2022-10-08T06:15:31.848Z,99604.03
2022-10-08T06:16:34.705Z,99596.66
2022-10-08T06:17:36.905Z,99604.78
2022-10-08T06:18:41.198Z,99606.66
2022-10-08T06:19:43.453Z,99605.41
2022-10-08T06:20:45.855Z,99594.69
2022-10-08T06:21:48.448Z,99604.66
2022-10-08T06:22:50.999Z,99603.81
2022-10-08T06:23:57.920Z,99603.41
2022-10-08T06:25:00.164Z,99609.25
2022-10-08T06:26:07.388Z,99612.09
2022-10-08T06:27:09.643Z,99614.41
2022-10-08T06:28:12.544Z,99616.97
2022-10-08T06:29:17.205Z,99620.31
2022-10-08T06:30:19.423Z,99614.13
2022-10-08T06:31:22.117Z,99613.75
2022-10-08T06:32:24.372Z,99607.13
2022-10-08T06:33:27.152Z,99620.03
2022-10-08T06:34:29.336Z,99619.59
2022-10-08T06:35:31.585Z,99618.00
2022-10-08T06:36:35.015Z,99614.00
2022-10-08T06:37:37.253Z,99620.38
2022-10-08T06:38:39.481Z,99615.88
2022-10-08T06:39:46.134Z,99628.19
2022-10-08T06:40:50.419Z,99622.91
2022-10-08T06:41:52.623Z,99619.22
2022-10-08T06:42:55.944Z,99624.00
2022-10-08T06:43:58.194Z,99636.44
2022-10-08T06:45:11.091Z,99629.28
2022-10-08T06:46:13.343Z,99643.66
2022-10-08T06:47:15.797Z,99648.47
2022-10-08T06:48:19.806Z,99648.56
2022-10-08T06:49:26.479Z,99652.34
2022-10-08T06:50:28.712Z,99653.22
2022-10-08T06:51:30.992Z,99655.41
2022-10-08T06:52:33.338Z,99660.50
2022-10-08T06:53:35.737Z,99663.78
2022-10-08T06:54:38.013Z,99661.13
2022-10-08T06:55:40.282Z,99666.16
2022-10-08T06:56:42.563Z,99667.47
2022-10-08T06:57:44.734Z,99670.69
2022-10-08T06:58:47.543Z,99675.19
2022-10-08T06:59:49.784Z,99675.78
2022-10-08T07:01:06.569Z,99679.63
2022-10-08T07:02:10.598Z,99686.22
2022-10-08T07:03:12.837Z,99687.75
2022-10-08T07:04:15.079Z,99694.47
2022-10-08T07:05:17.446Z,99687.69
2022-10-08T07:06:19.706Z,99695.28
2022-10-08T07:07:21.983Z,99696.94
2022-10-08T07:08:24.135Z,99701.34
2022-10-08T07:09:26.334Z,99702.13
2022-10-08T07:10:33.023Z,99704.94
2022-10-08T07:11:36.080Z,99703.34
2022-10-08T07:12:38.353Z,99703.94
2022-10-08T07:13:40.958Z,99710.34
2022-10-08T07:14:44.642Z,99722.84
2022-10-08T07:15:46.820Z,99715.19
2022-10-08T07:16:49.025Z,99715.31
2022-10-08T07:17:51.233Z,99716.22
2022-10-08T07:18:55.092Z,99709.72
2022-10-08T07:19:57.649Z,99720.09
2022-10-08T07:20:59.934Z,99717.66
2022-10-08T07:22:02.138Z,99716.50
2022-10-08T07:23:05.343Z,99718.03
2022-10-08T07:24:07.584Z,99717.66
2022-10-08T07:25:09.773Z,99723.16
2022-10-08T07:26:15.873Z,99723.56
2022-10-08T07:27:19.432Z,99735.75
2022-10-08T07:28:21.596Z,99737.78
2022-10-08T07:29:24.917Z,99741.13
2022-10-08T07:30:27.139Z,99739.59
2022-10-08T07:31:31.984Z,99736.53
2022-10-08T07:32:34.306Z,99742.84
2022-10-08T07:33:36.491Z,99746.59
2022-10-08T07:34:38.634Z,99743.88
2022-10-08T07:35:40.793Z,99748.81
2022-10-08T07:36:43.095Z,99747.72
2022-10-08T07:37:45.351Z,99756.69
2022-10-08T07:38:50.595Z,99748.31
2022-10-08T07:39:52.765Z,99758.38
2022-10-08T07:40:54.957Z,99743.47
2022-10-08T07:41:57.144Z,99760.19
2022-10-08T07:42:59.358Z,99759.97
2022-10-08T07:44:02.893Z,99761.19
2022-10-08T07:45:05.324Z,99773.19
2022-10-08T07:46:09.487Z,99760.84
2022-10-08T07:47:11.726Z,99764.59
2022-10-08T07:48:14.134Z,99767.47
2022-10-08T07:49:18.200Z,99772.91
2022-10-08T07:50:20.381Z,99777.50
2022-10-08T07:51:23.155Z,99777.84
2022-10-08T07:52:25.965Z,99774.09
2022-10-08T07:53:28.145Z,99785.22
2022-10-08T07:54:30.345Z,99779.16
2022-10-08T07:55:32.545Z,99786.16
2022-10-08T07:56:35.592Z,99782.81
2022-10-08T07:57:37.794Z,99778.88
2022-10-08T07:58:40.423Z,99777.44
2022-10-08T07:59:42.593Z,99782.59
2022-10-08T08:00:44.983Z,99779.00
2022-10-08T08:01:47.238Z,99787.34
2022-10-08T08:02:49.696Z,99777.88
2022-10-08T08:03:55.091Z,99786.25
2022-10-08T08:04:57.350Z,99783.25
2022-10-08T08:06:09.343Z,99788.13
2022-10-08T08:07:11.591Z,99788.34
2022-10-08T08:08:13.803Z,99794.41
2022-10-08T08:09:16.342Z,99793.53
2022-10-08T08:10:18.519Z,99792.47
2022-10-08T08:11:23.747Z,99796.03
2022-10-08T08:12:25.965Z,99792.97
2022-10-08T08:13:33.034Z,99794.69
2022-10-08T08:14:38.106Z,99785.09
2022-10-08T08:15:40.326Z,99798.78
2022-10-08T08:16:42.682Z,99798.47
2022-10-08T08:17:44.898Z,99799.50
2022-10-08T08:18:49.692Z,99784.22
2022-10-08T08:19:51.862Z,99798.63
2022-10-08T08:20:59.017Z,99802.94
2022-10-08T08:22:02.098Z,99805.28
2022-10-08T08:23:04.421Z,99806.44
2022-10-08T08:24:12.242Z,99810.50
2022-10-08T08:25:14.567Z,99812.78
2022-10-08T08:26:20.008Z,99814.69
2022-10-08T08:27:22.166Z,99817.88
2022-10-08T08:28:26.020Z,99822.53
2022-10-08T08:29:28.305Z,99816.84
2022-10-08T08:30:30.487Z,99823.28
2022-10-08T08:31:38.472Z,99824.06
2022-10-08T08:32:40.785Z,99823.84
2022-10-08T08:33:47.280Z,99814.16
2022-10-08T08:34:49.466Z,99826.00
2022-10-08T08:35:55.583Z,99819.97
2022-10-08T08:36:59.319Z,99817.75
2022-10-08T08:38:01.451Z,99826.88
2022-10-08T08:39:04.410Z,99828.38
2022-10-08T08:40:07.208Z,99826.56
2022-10-08T08:41:30.390Z,99816.78
2022-10-08T08:42:43.390Z,99832.41
2022-10-08T08:43:45.879Z,99830.50
2022-10-08T08:45:00.502Z,99830.16
2022-10-08T08:46:03.695Z,99826.38
2022-10-08T08:47:12.966Z,99819.88
2022-10-08T08:48:28.916Z,99832.72
2022-10-08T08:49:41.096Z,99833.88
2022-10-08T08:50:48.720Z,99836.88
2022-10-08T08:51:53.199Z,99852.47
2022-10-08T08:52:55.971Z,99841.56
2022-10-08T08:53:59.540Z,99846.53
2022-10-08T08:55:02.114Z,99847.25
2022-10-08T08:56:08.167Z,99848.59
2022-10-08T08:57:26.273Z,99851.84
2022-10-08T08:58:37.304Z,99846.25
2022-10-08T08:59:45.103Z,99850.31
2022-10-08T09:00:54.811Z,99845.88
2022-10-08T09:02:02.674Z,99850.94
2022-10-08T09:03:22.841Z,99851.38
2022-10-08T09:04:29.587Z,99848.22
2022-10-08T09:05:35.789Z,99854.88
2022-10-08T09:06:39.646Z,99860.59
2022-10-08T09:07:46.835Z,99861.50
2022-10-08T09:09:31.165Z,99860.81
2022-10-08T09:10:42.550Z,99863.13
2022-10-08T09:11:45.294Z,99862.00
2022-10-08T09:12:50.941Z,99856.31
2022-10-08T09:14:03.450Z,99859.03
2022-10-08T09:15:14.044Z,99864.72
2022-10-08T09:16:18.177Z,99864.56
2022-10-08T09:17:30.002Z,99865.94
2022-10-08T09:18:33.284Z,99853.66
2022-10-08T09:19:37.280Z,99855.25
2022-10-08T09:20:40.445Z,99863.13
2022-10-08T09:21:43.110Z,99870.59
2022-10-08T09:22:46.432Z,99867.97
2022-10-08T09:23:49.139Z,99856.41
2022-10-08T09:24:58.245Z,99862.06
2022-10-08T09:26:22.984Z,99873.28
2022-10-08T09:27:25.208Z,99864.72
2022-10-08T09:28:47.422Z,99874.03
2022-10-08T09:29:49.859Z,99877.09
2022-10-08T09:30:52.153Z,99878.31
2022-10-08T09:31:54.535Z,99872.50
2022-10-08T09:33:00.396Z,99875.38
2022-10-08T09:34:17.770Z,99877.34
2022-10-08T09:35:20.247Z,99887.38
2022-10-08T09:36:48.532Z,99877.06
2022-10-08T09:37:51.490Z,99880.50
2022-10-08T09:38:59.320Z,99884.84
2022-10-08T09:40:13.710Z,99885.31
2022-10-08T09:41:15.877Z,99888.03
2022-10-08T09:42:18.186Z,99886.13
2022-10-08T09:43:20.373Z,99881.59
2022-10-08T09:44:23.360Z,99892.25
2022-10-08T09:45:54.718Z,99884.66
2022-10-08T09:47:10.724Z,99883.28
2022-10-08T09:48:26.594Z,99886.28
2022-10-08T09:49:32.154Z,99883.06
2022-10-08T09:50:36.968Z,99877.72
2022-10-08T09:51:42.674Z,99878.78
2022-10-08T09:52:48.745Z,99892.25
2022-10-08T09:53:59.238Z,99885.25
2022-10-08T09:55:30.854Z,99894.94
2022-10-08T09:56:33.957Z,99891.47
2022-10-08T09:57:45.942Z,99895.34
2022-10-08T09:58:58.868Z,99889.06
2022-10-08T10:00:04.688Z,99884.66
2022-10-08T10:01:14.628Z,99892.13
2022-10-08T10:02:28.859Z,99897.13
2022-10-08T10:03:32.442Z,99885.13
2022-10-08T10:04:38.712Z,99893.25
2022-10-08T10:05:41.447Z,99894.66
2022-10-08T10:06:48.386Z,99885.63
2022-10-08T10:07:51.412Z,99892.78
2022-10-08T10:09:06.423Z,99884.56
2022-10-08T10:10:17.679Z,99892.19
2022-10-08T10:11:47.861Z,99882.91
2022-10-08T10:13:12.961Z,99888.34
2022-10-08T10:14:21.772Z,99890.06
2022-10-08T10:15:34.781Z,99881.00
2022-10-08T10:16:41.145Z,99891.13
2022-10-08T10:17:49.571Z,99894.19
2022-10-08T10:19:00.236Z,99897.59
2022-10-08T10:20:20.377Z,99899.31
2022-10-08T10:21:59.637Z,99884.78
2022-10-08T10:23:15.375Z,99892.28
2022-10-08T10:24:48.402Z,99883.03
2022-10-08T10:26:13.935Z,99892.13
2022-10-08T10:27:35.372Z,99900.00
2022-10-08T10:28:59.573Z,99899.00
2022-10-08T10:30:13.689Z,99895.13
2022-10-08T10:31:35.264Z,99892.47
2022-10-08T10:32:49.197Z,99902.75
2022-10-08T10:34:03.055Z,99888.34
2022-10-08T10:35:29.812Z,99894.88
2022-10-08T10:36:38.463Z,99893.53
2022-10-08T10:37:57.140Z,99893.88
2022-10-08T10:39:35.327Z,99898.81
2022-10-08T10:40:50.107Z,99896.09
2022-10-08T10:42:04.125Z,99902.25
2022-10-08T10:43:39.611Z,99905.81
2022-10-08T10:44:51.870Z,99898.09
2022-10-08T10:45:58.151Z,99902.72
2022-10-08T10:47:03.155Z,99887.91
2022-10-08T10:48:08.283Z,99903.66
2022-10-08T10:49:17.352Z,99899.09
2022-10-08T10:50:45.703Z,99905.38
2022-10-08T10:52:34.483Z,99902.53
2022-10-08T10:54:16.314Z,99897.75
2022-10-08T10:55:18.881Z,99908.41
2022-10-08T10:56:22.353Z,99896.00
2022-10-08T10:57:47.142Z,99893.59
2022-10-08T10:59:36.674Z,99896.13
2022-10-08T11:00:53.827Z,99899.59
2022-10-08T11:02:16.042Z,99900.94
2022-10-08T11:03:46.977Z,99897.19
2022-10-08T11:05:25.228Z,99908.00
2022-10-08T11:06:33.169Z,99906.78
2022-10-08T11:07:57.022Z,99906.78
2022-10-08T11:09:06.059Z,99894.25
2022-10-08T11:10:16.224Z,99901.63
2022-10-08T11:11:23.707Z,99906.78
2022-10-08T11:12:47.935Z,99903.72
2022-10-08T11:14:21.688Z,99900.06
2022-10-08T11:15:35.340Z,99900.34
2022-10-08T11:16:46.602Z,99909.44
2022-10-08T11:18:27.256Z,99904.00
2022-10-08T11:19:49.929Z,99897.94
2022-10-08T11:21:30.544Z,99902.72
2022-10-08T11:22:42.799Z,99905.38
2022-10-08T11:23:50.804Z,99893.09
2022-10-08T11:25:01.600Z,99898.31
2022-10-08T11:26:39.163Z,99896.09
2022-10-08T11:28:18.231Z,99903.88
2022-10-08T11:29:32.205Z,99903.13
2022-10-08T11:31:21.637Z,99907.03
2022-10-08T11:32:24.767Z,99897.78
2022-10-08T11:33:28.176Z,99898.03
2022-10-08T11:34:34.494Z,99904.88
2022-10-08T11:35:46.388Z,99903.06
2022-10-08T11:36:56.108Z,99903.75
2022-10-08T11:38:14.722Z,99909.22
2022-10-08T11:39:19.682Z,99893.97
2022-10-08T11:40:41.698Z,99894.34
2022-10-08T11:41:53.538Z,99890.06
2022-10-08T11:43:17.312Z,99898.97
2022-10-08T11:44:21.291Z,99892.63
2022-10-08T11:45:23.499Z,99896.06
2022-10-08T11:46:28.977Z,99896.16
2022-10-08T11:47:43.587Z,99891.41
2022-10-08T11:48:45.965Z,99884.66
2022-10-08T11:49:54.087Z,99892.53
2022-10-08T11:51:18.893Z,99896.31
2022-10-08T11:52:21.195Z,99886.59
2022-10-08T11:53:23.434Z,99893.13
2022-10-08T11:54:31.937Z,99887.88
2022-10-08T11:55:34.210Z,99896.41
2022-10-08T11:57:22.840Z,99888.44
2022-10-08T11:58:30.858Z,99886.41
2022-10-08T11:59:45.870Z,99876.41
2022-10-08T12:00:48.393Z,99883.72
2022-10-08T12:01:57.531Z,99882.97
2022-10-08T12:03:00.894Z,99877.38
2022-10-08T12:04:10.677Z,99879.66
2022-10-08T12:05:21.596Z,99875.19
2022-10-08T12:06:28.452Z,99882.69
2022-10-08T12:07:35.142Z,99886.56
2022-10-08T12:08:58.126Z,99887.53
2022-10-08T12:10:05.970Z,99884.00
2022-10-08T12:11:30.702Z,99882.38
2022-10-08T12:12:50.942Z,99886.78
2022-10-08T12:14:19.015Z,99884.41
2022-10-08T12:15:23.903Z,99879.06
2022-10-08T12:16:48.865Z,99882.38
2022-10-08T12:17:54.246Z,99883.63
2022-10-08T12:18:58.034Z,99881.84
2022-10-08T12:20:22.161Z,99889.09
2022-10-08T12:21:48.427Z,99890.22
2022-10-08T12:23:19.682Z,99896.09
2022-10-08T12:24:36.747Z,99894.00
2022-10-08T12:26:02.585Z,99893.75
2022-10-08T12:27:16.940Z,99886.16
2022-10-08T12:28:19.169Z,99889.09
2022-10-08T12:29:48.065Z,99887.16
2022-10-08T12:30:52.434Z,99891.34
2022-10-08T12:32:01.986Z,99888.28
2022-10-08T12:33:04.196Z,99886.06
2022-10-08T12:34:19.517Z,99878.75
2022-10-08T12:35:34.384Z,99883.97
2022-10-08T12:36:48.330Z,99887.22
2022-10-08T12:37:56.254Z,99881.94
2022-10-08T12:39:04.952Z,99882.81
2022-10-08T12:40:21.379Z,99893.66
2022-10-08T12:42:01.050Z,99885.16
2022-10-08T12:43:45.389Z,99881.50
2022-10-08T12:45:15.267Z,99885.63
2022-10-08T12:46:17.786Z,99883.50
2022-10-08T12:47:40.282Z,99883.22
2022-10-08T12:48:50.364Z,99872.78
2022-10-08T12:50:00.050Z,99880.72
2022-10-08T12:51:25.915Z,99882.13
2022-10-08T12:52:35.171Z,99884.56
2022-10-08T12:53:42.138Z,99876.47
2022-10-08T12:54:56.516Z,99875.88
2022-10-08T12:55:59.078Z,99884.38
2022-10-08T12:57:09.053Z,99886.88
2022-10-08T12:58:17.779Z,99884.16
2022-10-08T12:59:22.676Z,99883.75
2022-10-08T13:00:30.624Z,99885.00
2022-10-08T13:01:34.291Z,99882.75
2022-10-08T13:02:41.849Z,99887.56
2022-10-08T13:03:44.081Z,99880.56
2022-10-08T13:04:46.689Z,99890.81
2022-10-08T13:05:49.601Z,99892.06
2022-10-08T13:06:54.286Z,99888.03
2022-10-08T13:07:56.680Z,99886.22
2022-10-08T13:08:58.848Z,99886.38
2022-10-08T13:10:16.193Z,99885.84
2022-10-08T13:11:18.716Z,99896.00
2022-10-08T13:12:20.920Z,99887.53
2022-10-08T13:13:35.569Z,99897.56
2022-10-08T13:14:39.402Z,99895.66
2022-10-08T13:15:41.935Z,99893.31
2022-10-08T13:16:47.333Z,99893.78